Time;durP1;ratioP1;P1;durP2;ratioP2;P2;SDS_P1;SDS_P2;PMS_P1;PMS_P2;Temp;Humidity;BMP_temperature;BMP_pressure;BME280_temperature;BME280_humidity;BME280_pressure;Samples;Min_cycle;Max_cycle;Signal;HPM_P1;HPM_P2
2021/06/02 00:04:00;;;;;;;;;;;;;;;;;;5058400;28;20059;-65
2021/06/02 00:06:27;;;;;;;;;;;;;;;;;;5061554;28;19934;-65
2021/06/02 00:08:53;;;;;;;;;;;;;;;;;;5069202;28;19950;-65
2021/06/02 00:11:20;;;;;;;;;;;;;;;;;;5054489;28;20324;-65
2021/06/02 00:13:46;;;;;;;;;;;;;;;;;;5054912;28;20193;-65
2021/06/02 00:16:13;;;;;;;;;;;;;;;;;;5068929;28;20328;-66
2021/06/02 00:18:39;;;;;;;;;;;;;;;;;;5061004;28;19932;-67
2021/06/02 00:21:06;;;;;;;;;;;;;;;;;;5071723;28;19932;-66
2021/06/02 00:23:33;;;;;;;;;;;;;;;;;;5072270;28;19987;-66
2021/06/02 00:25:59;;;;;;;;;;;;;;;;;;5064554;28;19939;-66
2021/06/02 00:28:26;;;;;;;;;;;;;;;;;;5066181;28;19924;-66
2021/06/02 00:30:52;;;;;;;;;;;;;;;;;;5069961;28;19932;-66
2021/06/02 00:33:19;;;;;;;;;;;;;;;;;;5066016;28;19963;-66
2021/06/02 00:35:45;;;;;;;;;;;;;;;;;;5068018;28;19940;-66
2021/06/02 00:38:11;;;;;;;;;;;;;;;;;;5067346;28;19924;-66
2021/06/02 00:40:38;;;;;;;;;;;;;;;;;;5053813;28;19924;-67
2021/06/02 00:43:05;;;;;;;;;;;;;;;;;;5056112;28;19925;-66
2021/06/02 00:45:31;;;;;;;;;;;;;;;;;;5061947;28;19948;-66
2021/06/02 00:47:57;;;;;;;;;;;;;;;;;;5067420;28;19933;-66
2021/06/02 00:50:24;;;;;;;;;;;;;;;;;;5062167;28;20054;-65
2021/06/02 00:52:50;;;;;;;;;;;;;;;;;;5061215;28;19924;-66
2021/06/02 00:55:17;;;;;;;;;;;;;;;;;;5054098;28;19955;-65
2021/06/02 00:57:43;;;;;;;;;;;;;;;;;;5064594;28;19928;-65
2021/06/02 01:00:10;;;;;;;;;;;;;;;;;;5059419;28;20015;-66
2021/06/02 01:02:37;;;;;;;;;;;;;;;;;;5066861;28;19943;-65
2021/06/02 01:05:03;;;;;;;;;;;;;;;;;;5066049;28;19979;-66
2021/06/02 01:07:30;;;;;;;;;;;;;;;;;;5067847;28;19924;-66
2021/06/02 01:09:56;;;;;;;;;;;;;;;;;;5069817;28;19928;-70
2021/06/02 01:12:23;;;;;;;;;;;;;;;;;;5058710;28;20015;-66
2021/06/02 01:14:49;;;;;;;;;;;;;;;;;;5062302;28;19924;-66
2021/06/02 01:17:18;;;;;;;;;;;;;;;;;;5071174;28;19925;-66
2021/06/02 01:19:45;;;;;;;;;;;;;;;;;;5065027;28;19970;-66
2021/06/02 01:22:11;;;;;;;;;;;;;;;;;;5058342;28;20425;-65
2021/06/02 01:24:38;;;;;;;;;;;;;;;;;;5069945;28;19924;-66
2021/06/02 01:27:04;;;;;;;;;;;;;;;;;;5060063;28;19931;-65
2021/06/02 01:29:31;;;;;;;;;;;;;;;;;;5053582;28;19994;-64
2021/06/02 01:31:57;;;;;;;;;;;;;;;;;;5058919;28;19924;-64
2021/06/02 01:34:24;;;;;;;;;;;;;;;;;;5053400;28;20342;-65
2021/06/02 01:36:50;;;;;;;;;;;;;;;;;;5053592;28;20048;-65
2021/06/02 01:39:17;;;;;;;;;;;;;;;;;;5058455;28;19995;-65
2021/06/02 01:41:43;;;;;;;;;;;;;;;;;;5061171;28;19925;-65
2021/06/02 01:44:10;;;;;;;;;;;;;;;;;;5068466;28;19925;-65
2021/06/02 01:46:36;;;;;;;;;;;;;;;;;;5062658;28;19936;-65
2021/06/02 01:49:07;;;;;;;;;;;;;;;;;;5061009;28;19924;-65
2021/06/02 01:51:34;;;;;;;;;;;;;;;;;;5065435;28;19925;-65
2021/06/02 01:54:00;;;;;;;;;;;;;;;;;;5055978;28;19932;-65
2021/06/02 01:56:27;;;;;;;;;;;;;;;;;;5056906;28;19925;-64
2021/06/02 01:58:53;;;;;;;;;;;;;;;;;;5064889;28;19978;-64
2021/06/02 02:01:20;;;;;;;;;;;;;;;;;;5067658;28;20015;-64
2021/06/02 02:03:46;;;;;;;;;;;;;;;;;;5057866;28;19925;-65
2021/06/02 02:06:12;;;;;;;;;;;;;;;;;;5062780;28;19936;-65
2021/06/02 02:08:39;;;;;;;;;;;;;;;;;;5063731;28;20008;-64
2021/06/02 02:11:05;;;;;;;;;;;;;;;;;;5069592;28;19924;-65
2021/06/02 02:13:32;;;;;;;;;;;;;;;;;;5051990;28;19978;-65
2021/06/02 02:15:58;;;;;;;;;;;;;;;;;;5058900;28;19929;-65
2021/06/02 02:18:25;;;;;;;;;;;;;;;;;;5068092;28;19990;-65
2021/06/02 02:20:51;;;;;;;;;;;;;;;;;;5056786;28;19940;-66
2021/06/02 02:23:18;;;;;;;;;;;;;;;;;;5059301;28;19928;-64
2021/06/02 02:25:45;;;;;;;;;;;;;;;;;;5055888;28;19925;-65
2021/06/02 02:28:11;;;;;;;;;;;;;;;;;;5062269;28;19939;-65
2021/06/02 02:30:37;;;;;;;;;;;;;;;;;;5054568;28;19932;-66
2021/06/02 02:33:04;;;;;;;;;;;;;;;;;;5064200;28;19929;-65
2021/06/02 02:35:30;;;;;;;;;;;;;;;;;;5060055;28;19928;-65
2021/06/02 02:37:57;;;;;;;;;;;;;;;;;;5055048;28;19925;-66
2021/06/02 02:40:23;;;;;;;;;;;;;;;;;;5062461;28;19931;-66
2021/06/02 02:42:50;;;;;;;;;;;;;;;;;;5070958;28;19932;-66
2021/06/02 02:45:16;;;;;;;;;;;;;;;;;;5054757;28;19925;-69
2021/06/02 02:47:43;;;;;;;;;;;;;;;;;;5065439;28;20024;-66
2021/06/02 02:50:10;;;;;;;;;;;;;;;;;;5064306;28;19924;-66
2021/06/02 02:52:37;;;;;;;;;;;;;;;;;;5069748;28;19925;-66
2021/06/02 02:55:03;;;;;;;;;;;;;;;;;;5055058;28;20300;-67
2021/06/02 02:57:30;;;;;;;;;;;;;;;;;;5062622;28;19925;-66
2021/06/02 02:59:56;;;;;;;;;;;;;;;;;;5058762;28;19967;-66
2021/06/02 03:02:23;;;;;;;;;;;;;;;;;;5120591;22;20454;-68
2021/06/02 03:04:49;;;;;;;;;;;;;;;;;;5112015;28;19924;-68
2021/06/02 03:07:16;;;;;;;;;;;;;;;;;;5112566;28;19924;-68
2021/06/02 03:09:42;;;;;;;;;;;;;;;;;;5114084;28;19930;-68
2021/06/02 03:12:09;;;;;;;;;;;;;;;;;;5130432;27;19924;-69
2021/06/02 03:14:35;;;;;;;;;;;;;;;;;;5133290;27;19923;-68
2021/06/02 03:17:02;;;;;;;;;;;;;;;;;;5119959;27;20339;-70
2021/06/02 03:19:31;;;;;;;;;;;;;;;;;;5114305;27;19974;-69
2021/06/02 03:21:59;;;;;;;;;;;;;;;;;;5114946;27;20063;-68
2021/06/02 03:24:25;;;;;;;;;;;;;;;;;;5125647;27;19975;-68
2021/06/02 03:26:52;;;;;;;;;;;;;;;;;;5120821;27;21191;-68
2021/06/02 03:29:19;;;;;;;;;;;;;;;;;;5130541;27;19931;-69
2021/06/02 03:31:46;;;;;;;;;;;;;;;;;;5114117;28;19924;-69
2021/06/02 03:34:12;;;;;;;;;;;;;;;;;;5115597;27;20070;-69
2021/06/02 03:36:39;;;;;;;;;;;;;;;;;;5118952;27;19923;-69
2021/06/02 03:39:05;;;;;;;;;;;;;;;;;;5121970;27;20081;-70
2021/06/02 03:41:31;;;;;;;;;;;;;;;;;;5113676;27;19924;-69
2021/06/02 03:43:58;;;;;;;;;;;;;;;;;;5132302;27;20371;-68
2021/06/02 03:46:24;;;;;;;;;;;;;;;;;;5118774;27;19923;-69
2021/06/02 03:48:51;;;;;;;;;;;;;;;;;;5114955;27;19923;-68
2021/06/02 03:51:17;;;;;;;;;;;;;;;;;;5129813;27;20294;-68
2021/06/02 03:53:44;;;;;;;;;;;;;;;;;;5125711;27;19969;-68
2021/06/02 03:56:10;;;;;;;;;;;;;;;;;;5117609;27;19924;-68
2021/06/02 03:58:37;;;;;;;;;;;;;;;;;;5118448;27;19924;-69
2021/06/02 04:01:03;;;;;;;;;;;;;;;;;;5115078;27;19931;-68
2021/06/02 04:03:30;;;;;;;;;;;;;;;;;;5116333;27;19930;-69
2021/06/02 04:05:56;;;;;;;;;;;;;;;;;;5133355;27;20298;-68
2021/06/02 04:08:23;;;;;;;;;;;;;;;;;;5125155;27;19931;-67
2021/06/02 04:10:49;;;;;;;;;;;;;;;;;;5113787;27;19924;-68
2021/06/02 04:13:16;;;;;;;;;;;;;;;;;;5125793;27;19976;-69
2021/06/02 04:15:42;;;;;;;;;;;;;;;;;;5132167;27;20325;-68
2021/06/02 04:18:09;;;;;;;;;;;;;;;;;;5118151;27;19924;-69
2021/06/02 04:20:35;;;;;;;;;;;;;;;;;;5114625;27;20372;-68
2021/06/02 04:23:02;;;;;;;;;;;;;;;;;;5121723;27;19938;-69
2021/06/02 04:25:28;;;;;;;;;;;;;;;;;;5113511;27;19923;-68
2021/06/02 04:27:55;;;;;;;;;;;;;;;;;;5131658;27;20430;-68
2021/06/02 04:30:21;;;;;;;;;;;;;;;;;;5121698;27;19966;-68
2021/06/02 04:32:48;;;;;;;;;;;;;;;;;;5115048;27;19931;-69
2021/06/02 04:35:14;;;;;;;;;;;;;;;;;;5125710;27;20280;-68
2021/06/02 04:37:41;;;;;;;;;;;;;;;;;;5133217;27;20302;-68
2021/06/02 04:40:07;;;;;;;;;;;;;;;;;;5130515;27;19934;-68
2021/06/02 04:42:34;;;;;;;;;;;;;;;;;;5119518;27;20415;-67
2021/06/02 04:45:00;;;;;;;;;;;;;;;;;;5121757;27;19928;-69
2021/06/02 04:47:27;;;;;;;;;;;;;;;;;;5113644;27;20387;-69
2021/06/02 04:49:53;;;;;;;;;;;;;;;;;;5130743;27;19968;-69
2021/06/02 04:52:20;;;;;;;;;;;;;;;;;;5122603;27;19923;-69
2021/06/02 04:54:46;;;;;;;;;;;;;;;;;;5125911;27;19923;-69
2021/06/02 04:57:13;;;;;;;;;;;;;;;;;;5118722;27;19963;-69
2021/06/02 04:59:39;;;;;;;;;;;;;;;;;;5116097;27;20378;-69
2021/06/02 05:02:06;;;;;;;;;;;;;;;;;;5121503;27;19924;-69
2021/06/02 05:04:33;;;;;;;;;;;;;;;;;;5123662;27;19924;-69
2021/06/02 05:06:59;;;;;;;;;;;;;;;;;;5122291;27;20302;-69
2021/06/02 05:09:26;;;;;;;;;;;;;;;;;;5119385;27;20012;-68
2021/06/02 05:11:52;;;;;;;;;;;;;;;;;;5125675;27;20306;-69
2021/06/02 05:14:19;;;;;;;;;;;;;;;;;;5116847;27;19928;-69
2021/06/02 05:16:45;;;;;;;;;;;;;;;;;;5120316;27;19927;-69
2021/06/02 05:19:18;;;;;;;;;;;;;;;;;;5125114;27;19927;-71
2021/06/02 05:24:29;;;;;;;;;;;;;;;;;;5114401;27;19941;-68
2021/06/02 05:26:56;;;;;;;;;;;;;;;;;;5130413;27;19927;-69
2021/06/02 05:29:22;;;;;;;;;;;;;;;;;;5121184;27;19923;-69
2021/06/02 05:31:49;;;;;;;;;;;;;;;;;;5116274;27;19936;-67
2021/06/02 05:34:15;;;;;;;;;;;;;;;;;;5105016;28;20329;-68
2021/06/02 05:36:42;;;;;;;;;;;;;;;;;;5108149;27;19932;-71
2021/06/02 05:39:11;;;;;;;;;;;;;;;;;;5100237;28;20379;-68
2021/06/02 05:41:37;;;;;;;;;;;;;;;;;;5096724;28;19935;-68
2021/06/02 05:44:04;;;;;;;;;;;;;;;;;;5106073;28;20455;-68
2021/06/02 05:46:30;;;;;;;;;;;;;;;;;;5097567;28;19973;-70
2021/06/02 05:48:57;;;;;;;;;;;;;;;;;;5104405;28;19924;-70
2021/06/02 05:51:23;;;;;;;;;;;;;;;;;;5107301;28;19930;-70
2021/06/02 05:53:50;;;;;;;;;;;;;;;;;;5103174;28;19932;-69
2021/06/02 05:56:16;;;;;;;;;;;;;;;;;;5104949;28;20360;-71
2021/06/02 05:58:43;;;;;;;;;;;;;;;;;;5101885;28;19970;-70
2021/06/02 06:01:09;;;;;;;;;;;;;;;;;;5093076;28;20326;-71
2021/06/02 06:03:36;;;;;;;;;;;;;;;;;;5101200;28;20397;-69
2021/06/02 06:06:02;;;;;;;;;;;;;;;;;;5111509;27;19985;-70
2021/06/02 06:08:29;;;;;;;;;;;;;;;;;;5105403;27;19982;-71
2021/06/02 06:10:55;;;;;;;;;;;;;;;;;;5100013;28;19938;-70
2021/06/02 06:13:22;;;;;;;;;;;;;;;;;;5111334;27;20024;-71
2021/06/02 06:15:48;;;;;;;;;;;;;;;;;;5098784;27;19975;-71
2021/06/02 06:18:15;;;;;;;;;;;;;;;;;;5112635;27;19924;-71
2021/06/02 06:20:41;;;;;;;;;;;;;;;;;;5103211;27;19932;-71
2021/06/02 06:23:08;;;;;;;;;;;;;;;;;;5106201;27;19949;-67
2021/06/02 06:25:34;;;;;;;;;;;;;;;;;;5110568;27;19924;-68
2021/06/02 06:28:01;;;;;;;;;;;;;;;;;;5104131;27;20028;-68
2021/06/02 06:30:28;;;;;;;;;;;;;;;;;;5101240;28;19928;-69
2021/06/02 06:32:56;;;;;;;;;;;;;;;;;;5113145;27;19923;-70
2021/06/02 06:35:22;;;;;;;;;;;;;;;;;;5108207;27;20407;-69
2021/06/02 06:37:49;;;;;;;;;;;;;;;;;;5110426;27;19924;-69
2021/06/02 06:40:15;;;;;;;;;;;;;;;;;;5110263;27;19969;-69
2021/06/02 06:42:42;;;;;;;;;;;;;;;;;;5109046;27;20022;-69
2021/06/02 06:45:08;;;;;;;;;;;;;;;;;;5097061;27;19977;-69
2021/06/02 06:47:35;;;;;;;;;;;;;;;;;;5105031;27;19932;-70
2021/06/02 06:50:01;;;;;;;;;;;;;;;;;;5112304;27;19928;-69
2021/06/02 06:52:28;;;;;;;;;;;;;;;;;;5104995;28;19971;-70
2021/06/02 06:54:54;;;;;;;;;;;;;;;;;;5106516;27;19959;-69
2021/06/02 06:57:21;;;;;;;;;;;;;;;;;;5110608;27;19931;-69
2021/06/02 06:59:47;;;;;;;;;;;;;;;;;;5101068;27;19928;-69
2021/06/02 07:02:14;;;;;;;;;;;;;;;;;;5107436;28;19988;-70
2021/06/02 07:04:40;;;;;;;;;;;;;;;;;;5126614;27;19991;-70
2021/06/02 07:07:07;;;;;;;;;;;;;;;;;;5110194;27;19963;-71
2021/06/02 07:09:33;;;;;;;;;;;;;;;;;;5115998;28;19991;-70
2021/06/02 07:11:59;;;;;;;;;;;;;;;;;;5109551;27;19923;-68
2021/06/02 07:14:29;;;;;;;;;;;;;;;;;;5101840;27;19924;-70
2021/06/02 07:16:57;;;;;;;;;;;;;;;;;;5105129;28;19960;-69
2021/06/02 07:19:23;;;;;;;;;;;;;;;;;;5103356;27;20061;-69
2021/06/02 07:21:50;;;;;;;;;;;;;;;;;;5114394;27;20398;-71
2021/06/02 07:24:16;;;;;;;;;;;;;;;;;;5102618;28;19930;-68
2021/06/02 07:26:43;;;;;;;;;;;;;;;;;;5107929;27;19924;-69
2021/06/02 07:29:09;;;;;;;;;;;;;;;;;;5107030;27;20022;-71
2021/06/02 07:31:36;;;;;;;;;;;;;;;;;;5113276;27;19932;-71
2021/06/02 07:34:02;;;;;;;;;;;;;;;;;;5102836;27;19977;-68
2021/06/02 07:36:29;;;;;;;;;;;;;;;;;;5108177;27;19997;-68
2021/06/02 07:38:55;;;;;;;;;;;;;;;;;;5096321;28;20198;-70
2021/06/02 07:41:21;;;;;;;;;;;;;;;;;;5108292;27;19932;-70
2021/06/02 07:43:48;;;;;;;;;;;;;;;;;;5104011;27;19924;-69
2021/06/02 07:46:14;;;;;;;;;;;;;;;;;;5108205;27;19936;-70
2021/06/02 07:48:41;;;;;;;;;;;;;;;;;;5110334;27;19934;-69
2021/06/02 07:51:07;;;;;;;;;;;;;;;;;;5103482;27;20000;-69
2021/06/02 07:53:34;;;;;;;;;;;;;;;;;;5108977;27;19992;-69
2021/06/02 07:56:00;;;;;;;;;;;;;;;;;;5107825;27;19923;-68
2021/06/02 07:58:27;;;;;;;;;;;;;;;;;;5101157;28;19928;-69
2021/06/02 08:00:53;;;;;;;;;;;;;;;;;;5104105;27;19934;-68
2021/06/02 08:03:20;;;;;;;;;;;;;;;;;;5109843;27;19923;-69
2021/06/02 08:05:46;;;;;;;;;;;;;;;;;;5105969;28;20391;-68
2021/06/02 08:08:13;;;;;;;;;;;;;;;;;;5110440;28;20011;-70
2021/06/02 08:10:39;;;;;;;;;;;;;;;;;;5097596;27;20314;-71
2021/06/02 08:13:06;;;;;;;;;;;;;;;;;;5099998;28;20299;-69
2021/06/02 08:15:32;;;;;;;;;;;;;;;;;;5106127;27;20387;-68
2021/06/02 08:17:59;;;;;;;;;;;;;;;;;;5096060;28;20295;-71
2021/06/02 08:20:25;;;;;;;;;;;;;;;;;;5097654;28;20292;-70
2021/06/02 08:22:51;;;;;;;;;;;;;;;;;;5098784;27;20014;-70
2021/06/02 08:25:18;;;;;;;;;;;;;;;;;;5107710;27;19930;-70
2021/06/02 08:27:44;;;;;;;;;;;;;;;;;;5101519;28;19932;-71
2021/06/02 08:30:11;;;;;;;;;;;;;;;;;;5103515;28;19935;-71
2021/06/02 08:32:37;;;;;;;;;;;;;;;;;;5106185;28;21416;-68
2021/06/02 08:35:04;;;;;;;;;;;;;;;;;;5100618;27;20018;-70
2021/06/02 08:37:30;;;;;;;;;;;;;;;;;;5102859;27;20443;-69
2021/06/02 08:39:57;;;;;;;;;;;;;;;;;;5105039;27;19927;-70
2021/06/02 08:42:23;;;;;;;;;;;;;;;;;;5103916;27;19924;-72
2021/06/02 08:44:50;;;;;;;;;;;;;;;;;;5107758;27;20022;-71
2021/06/02 08:47:16;;;;;;;;;;;;;;;;;;5102110;27;19923;-69
2021/06/02 08:49:43;;;;;;;;;;;;;;;;;;5100892;27;19955;-68
2021/06/02 08:52:09;;;;;;;;;;;;;;;;;;5107325;27;19931;-69
2021/06/02 08:54:36;;;;;;;;;;;;;;;;;;5111055;28;19923;-69
2021/06/02 08:57:02;;;;;;;;;;;;;;;;;;5105804;28;19923;-70
2021/06/02 08:59:29;;;;;;;;;;;;;;;;;;5106916;28;19977;-68
2021/06/02 09:01:55;;;;;;;;;;;;;;;;;;5109535;22;19963;-65
2021/06/02 09:04:22;;;;;;;;;;;;;;;;;;5081121;28;19924;-64
2021/06/02 09:06:48;;;;;;;;;;;;;;;;;;5084338;28;20015;-67
2021/06/02 09:09:15;;;;;;;;;;;;;;;;;;5086057;28;19930;-65
2021/06/02 09:11:42;;;;;;;;;;;;;;;;;;5075528;28;20329;-67
2021/06/02 09:14:09;;;;;;;;;;;;;;;;;;5070082;28;19924;-65
2021/06/02 09:16:35;;;;;;;;;;;;;;;;;;5069618;28;19986;-67
2021/06/02 09:19:02;;;;;;;;;;;;;;;;;;5069614;28;19924;-66
2021/06/02 09:21:28;;;;;;;;;;;;;;;;;;5066643;28;19932;-65
2021/06/02 09:23:55;;;;;;;;;;;;;;;;;;5054675;28;19932;-66
2021/06/02 09:26:21;;;;;;;;;;;;;;;;;;5067915;28;20012;-67
2021/06/02 09:28:48;;;;;;;;;;;;;;;;;;5063951;28;20388;-65
2021/06/02 09:31:14;;;;;;;;;;;;;;;;;;5069169;28;19924;-63
2021/06/02 09:33:41;;;;;;;;;;;;;;;;;;5069598;28;19924;-63
2021/06/02 09:36:07;;;;;;;;;;;;;;;;;;5071771;28;19925;-65
2021/06/02 09:38:34;;;;;;;;;;;;;;;;;;5061507;28;19928;-63
2021/06/02 09:41:00;;;;;;;;;;;;;;;;;;5071112;28;19940;-64
2021/06/02 09:43:26;;;;;;;;;;;;;;;;;;5070793;28;20259;-63
2021/06/02 09:45:53;;;;;;;;;;;;;;;;;;5071960;28;19936;-65
2021/06/02 09:48:21;;;;;;;;;;;;;;;;;;5064874;28;19966;-63
2021/06/02 09:50:47;;;;;;;;;;;;;;;;;;5069427;28;19931;-64
2021/06/02 09:53:14;;;;;;;;;;;;;;;;;;5070384;28;20307;-65
2021/06/02 09:55:40;;;;;;;;;;;;;;;;;;5073039;28;19932;-65
2021/06/02 09:58:07;;;;;;;;;;;;;;;;;;5072229;28;19925;-63
2021/06/02 10:00:33;;;;;;;;;;;;;;;;;;5072123;28;19932;-62
2021/06/02 10:03:00;;;;;;;;;;;;;;;;;;5067949;28;20345;-63
2021/06/02 10:05:26;;;;;;;;;;;;;;;;;;5064956;28;20313;-63
2021/06/02 10:07:53;;;;;;;;;;;;;;;;;;5067892;28;19929;-62
2021/06/02 10:10:20;;;;;;;;;;;;;;;;;;5070622;28;19931;-65
2021/06/02 10:12:46;;;;;;;;;;;;;;;;;;5066541;28;20368;-66
2021/06/02 10:15:13;;;;;;;;;;;;;;;;;;5068597;28;19960;-66
2021/06/02 10:17:39;;;;;;;;;;;;;;;;;;5071246;28;19935;-63
2021/06/02 10:20:06;;;;;;;;;;;;;;;;;;5071545;28;20397;-67
2021/06/02 10:22:32;;;;;;;;;;;;;;;;;;5070967;28;19925;-64
2021/06/02 10:24:59;;;;;;;;;;;;;;;;;;5071040;28;20380;-65
2021/06/02 10:27:25;;;;;;;;;;;;;;;;;;5067381;28;19931;-63
2021/06/02 10:29:52;;;;;;;;;;;;;;;;;;5051315;28;19924;-65
2021/06/02 10:32:18;;;;;;;;;;;;;;;;;;5051470;28;20354;-66
2021/06/02 10:34:45;;;;;;;;;;;;;;;;;;5071166;28;20054;-65
2021/06/02 10:37:11;;;;;;;;;;;;;;;;;;5071130;28;19972;-65
2021/06/02 10:39:38;;;;;;;;;;;;;;;;;;5050978;28;20303;-65
2021/06/02 10:42:05;;;;;;;;;;;;;;;;;;5051582;28;20389;-64
2021/06/02 10:44:31;;;;;;;;;;;;;;;;;;5074539;28;20003;-65
2021/06/02 10:46:58;;;;;;;;;;;;;;;;;;5071277;28;19924;-64
2021/06/02 10:49:26;;;;;;;;;;;;;;;;;;5058087;28;20324;-64
2021/06/02 10:51:54;;;;;;;;;;;;;;;;;;5068033;28;19954;-64
2021/06/02 10:54:21;;;;;;;;;;;;;;;;;;5074620;28;19963;-64
2021/06/02 10:56:48;;;;;;;;;;;;;;;;;;5074884;28;19943;-64
2021/06/02 10:59:14;;;;;;;;;;;;;;;;;;5063930;28;20318;-65
2021/06/02 11:01:40;;;;;;;;;;;;;;;;;;5074145;28;19924;-63
2021/06/02 11:04:08;;;;;;;;;;;;;;;;;;5068997;28;19928;-63
2021/06/02 11:06:35;;;;;;;;;;;;;;;;;;5074111;28;20430;-63
2021/06/02 11:09:01;;;;;;;;;;;;;;;;;;5071557;28;19924;-65
2021/06/02 11:11:29;;;;;;;;;;;;;;;;;;5072127;28;20399;-65
2021/06/02 11:13:55;;;;;;;;;;;;;;;;;;5067673;28;20015;-62
2021/06/02 11:16:22;;;;;;;;;;;;;;;;;;5068386;28;20345;-62
2021/06/02 11:18:48;;;;;;;;;;;;;;;;;;5069475;28;19939;-63
2021/06/02 11:21:15;;;;;;;;;;;;;;;;;;5066458;28;19953;-62
2021/06/02 11:23:42;;;;;;;;;;;;;;;;;;5068975;28;20447;-64
2021/06/02 11:26:08;;;;;;;;;;;;;;;;;;5070964;28;20005;-63
2021/06/02 11:28:35;;;;;;;;;;;;;;;;;;5073391;28;19925;-64
2021/06/02 11:31:01;;;;;;;;;;;;;;;;;;5076167;28;20420;-64
2021/06/02 11:33:28;;;;;;;;;;;;;;;;;;5073113;28;20281;-63
2021/06/02 11:35:54;;;;;;;;;;;;;;;;;;5070245;28;19930;-64
2021/06/02 11:38:20;;;;;;;;;;;;;;;;;;5064787;28;19920;-64
2021/06/02 11:40:47;;;;;;;;;;;;;;;;;;5069675;28;19940;-63
2021/06/02 11:43:13;;;;;;;;;;;;;;;;;;5073573;28;19974;-65
2021/06/02 11:45:40;;;;;;;;;;;;;;;;;;5072277;28;20281;-65
2021/06/02 11:48:06;;;;;;;;;;;;;;;;;;5073191;28;19971;-64
2021/06/02 11:50:33;;;;;;;;;;;;;;;;;;5073594;28;19928;-65
2021/06/02 11:53:00;;;;;;;;;;;;;;;;;;5070368;28;19928;-66
2021/06/02 11:55:26;;;;;;;;;;;;;;;;;;5068307;28;20499;-63
2021/06/02 11:57:53;;;;;;;;;;;;;;;;;;5074614;28;19933;-64
2021/06/02 12:00:19;;;;;;;;;;;;;;;;;;5073287;28;19932;-65
2021/06/02 12:02:47;;;;;;;;;;;;;;;;;;5069584;28;20886;-65
2021/06/02 12:05:14;;;;;;;;;;;;;;;;;;5072416;28;21163;-64
2021/06/02 12:07:40;;;;;;;;;;;;;;;;;;5068407;28;19946;-64
2021/06/02 12:10:07;;;;;;;;;;;;;;;;;;5066459;28;19925;-62
2021/06/02 12:12:33;;;;;;;;;;;;;;;;;;5067174;28;20396;-64
2021/06/02 12:15:00;;;;;;;;;;;;;;;;;;5069753;28;20375;-64
2021/06/02 12:17:26;;;;;;;;;;;;;;;;;;5070429;28;20015;-65
2021/06/02 12:19:53;;;;;;;;;;;;;;;;;;5065719;28;19929;-64
2021/06/02 12:22:19;;;;;;;;;;;;;;;;;;5067641;28;19925;-63
2021/06/02 12:24:46;;;;;;;;;;;;;;;;;;5068534;28;21817;-63
2021/06/02 12:27:12;;;;;;;;;;;;;;;;;;5067537;28;20011;-65
2021/06/02 12:29:39;;;;;;;;;;;;;;;;;;5070167;28;19924;-64
2021/06/02 12:32:06;;;;;;;;;;;;;;;;;;5066776;28;19932;-64
2021/06/02 12:34:33;;;;;;;;;;;;;;;;;;5064627;28;20288;-64
2021/06/02 12:37:00;;;;;;;;;;;;;;;;;;5066168;28;19929;-65
2021/06/02 12:39:28;;;;;;;;;;;;;;;;;;5063422;28;20431;-65
2021/06/02 12:41:54;;;;;;;;;;;;;;;;;;5066965;28;19925;-63
2021/06/02 12:44:21;;;;;;;;;;;;;;;;;;5068058;28;20304;-65
2021/06/02 12:46:47;;;;;;;;;;;;;;;;;;5065963;28;19978;-62
2021/06/02 12:49:14;;;;;;;;;;;;;;;;;;5068084;28;19946;-64
2021/06/02 12:51:40;;;;;;;;;;;;;;;;;;5067618;28;19928;-65
2021/06/02 12:54:07;;;;;;;;;;;;;;;;;;5068351;28;19928;-65
2021/06/02 12:56:33;;;;;;;;;;;;;;;;;;5067128;28;19928;-64
2021/06/02 12:59:00;;;;;;;;;;;;;;;;;;5066793;28;19931;-65
2021/06/02 13:01:26;;;;;;;;;;;;;;;;;;5067508;28;19931;-65
2021/06/02 13:03:53;;;;;;;;;;;;;;;;;;5076249;28;20042;-64
2021/06/02 13:06:20;;;;;;;;;;;;;;;;;;5065585;28;19924;-68
2021/06/02 13:08:46;;;;;;;;;;;;;;;;;;5067496;28;20300;-67
2021/06/02 13:11:13;;;;;;;;;;;;;;;;;;5067650;28;19932;-64
2021/06/02 13:13:40;;;;;;;;;;;;;;;;;;5063933;28;19950;-66
2021/06/02 13:16:06;;;;;;;;;;;;;;;;;;5068041;28;19924;-65
2021/06/02 13:18:33;;;;;;;;;;;;;;;;;;5069938;28;19928;-65
2021/06/02 13:20:59;;;;;;;;;;;;;;;;;;5069864;28;19986;-66
2021/06/02 13:23:26;;;;;;;;;;;;;;;;;;5069064;28;19924;-67
2021/06/02 13:25:52;;;;;;;;;;;;;;;;;;5070297;28;19924;-64
2021/06/02 13:28:19;;;;;;;;;;;;;;;;;;5070422;28;19925;-64
2021/06/02 13:30:45;;;;;;;;;;;;;;;;;;5066023;28;20461;-65
2021/06/02 13:33:12;;;;;;;;;;;;;;;;;;5068189;28;19964;-62
2021/06/02 13:35:38;;;;;;;;;;;;;;;;;;5067316;28;19928;-60
2021/06/02 13:38:08;;;;;;;;;;;;;;;;;;5065655;28;19932;-61
2021/06/02 13:40:34;;;;;;;;;;;;;;;;;;5068007;28;19931;-65
2021/06/02 13:43:02;;;;;;;;;;;;;;;;;;5065567;28;20011;-64
2021/06/02 13:45:28;;;;;;;;;;;;;;;;;;5067015;28;20372;-64
2021/06/02 13:47:55;;;;;;;;;;;;;;;;;;5065466;28;19931;-65
2021/06/02 13:50:21;;;;;;;;;;;;;;;;;;5067925;28;19928;-66
2021/06/02 13:52:48;;;;;;;;;;;;;;;;;;5065798;28;19939;-67
2021/06/02 13:55:14;;;;;;;;;;;;;;;;;;5066074;28;20384;-66
2021/06/02 13:57:41;;;;;;;;;;;;;;;;;;5067293;28;19982;-65
2021/06/02 14:00:07;;;;;;;;;;;;;;;;;;5066070;28;19937;-64
2021/06/02 14:02:34;;;;;;;;;;;;;;;;;;5067875;28;20308;-63
2021/06/02 14:05:00;;;;;;;;;;;;;;;;;;5066093;28;20309;-67
2021/06/02 14:07:27;;;;;;;;;;;;;;;;;;5070733;28;20012;-65
2021/06/02 14:09:54;;;;;;;;;;;;;;;;;;5071104;28;20066;-65
2021/06/02 14:12:20;;;;;;;;;;;;;;;;;;5069362;28;19925;-66
2021/06/02 14:14:47;;;;;;;;;;;;;;;;;;5067866;28;19924;-65
2021/06/02 14:17:13;;;;;;;;;;;;;;;;;;5068222;28;19929;-67
2021/06/02 14:19:40;;;;;;;;;;;;;;;;;;5069017;28;19984;-65
2021/06/02 14:22:06;;;;;;;;;;;;;;;;;;5067704;28;20377;-65
2021/06/02 14:24:35;;;;;;;;;;;;;;;;;;5068594;28;19980;-65
2021/06/02 14:27:01;;;;;;;;;;;;;;;;;;5071490;28;19930;-67
2021/06/02 14:29:31;;;;;;;;;;;;;;;;;;5070020;28;19930;-65
2021/06/02 14:31:57;;;;;;;;;;;;;;;;;;5072539;28;20007;-67
2021/06/02 14:34:24;;;;;;;;;;;;;;;;;;5071257;28;20376;-66
2021/06/02 14:36:50;;;;;;;;;;;;;;;;;;5074824;28;20446;-65
2021/06/02 14:39:17;;;;;;;;;;;;;;;;;;5074071;28;19986;-65
2021/06/02 14:41:43;;;;;;;;;;;;;;;;;;5073134;28;19935;-64
2021/06/02 14:44:10;;;;;;;;;;;;;;;;;;5073067;28;19977;-64
2021/06/02 14:46:36;;;;;;;;;;;;;;;;;;5073635;28;20281;-65
2021/06/02 14:49:03;;;;;;;;;;;;;;;;;;5067716;28;19935;-66
2021/06/02 14:51:29;;;;;;;;;;;;;;;;;;5073579;28;19931;-63
2021/06/02 14:53:56;;;;;;;;;;;;;;;;;;5070687;28;20309;-68
2021/06/02 14:56:22;;;;;;;;;;;;;;;;;;5071701;28;19974;-66
2021/06/02 14:58:49;;;;;;;;;;;;;;;;;;5073862;28;20289;-66
2021/06/02 15:01:15;;;;;;;;;;;;;;;;;;5088839;22;19924;-69
2021/06/02 15:03:42;;;;;;;;;;;;;;;;;;5090184;28;20198;-67
2021/06/02 15:06:10;;;;;;;;;;;;;;;;;;5093635;28;19928;-67
2021/06/02 15:08:36;;;;;;;;;;;;;;;;;;5090852;28;20310;-67
2021/06/02 15:11:03;;;;;;;;;;;;;;;;;;5086742;28;20030;-67
2021/06/02 15:13:29;;;;;;;;;;;;;;;;;;5067224;28;19931;-69
2021/06/02 15:15:56;;;;;;;;;;;;;;;;;;5069424;28;19924;-67
2021/06/02 15:18:22;;;;;;;;;;;;;;;;;;5066132;28;19964;-67
2021/06/02 15:20:49;;;;;;;;;;;;;;;;;;5066105;28;20011;-69
2021/06/02 15:23:18;;;;;;;;;;;;;;;;;;5071566;28;20660;-66
2021/06/02 15:25:45;;;;;;;;;;;;;;;;;;5067408;28;19931;-66
2021/06/02 15:28:11;;;;;;;;;;;;;;;;;;5067179;28;19925;-69
2021/06/02 15:30:38;;;;;;;;;;;;;;;;;;5069064;28;20303;-66
2021/06/02 15:33:04;;;;;;;;;;;;;;;;;;5065774;28;19988;-66
2021/06/02 15:35:31;;;;;;;;;;;;;;;;;;5067101;28;20076;-67
2021/06/02 15:37:57;;;;;;;;;;;;;;;;;;5065633;28;20365;-68
2021/06/02 15:40:24;;;;;;;;;;;;;;;;;;5066345;28;19936;-67
2021/06/02 15:42:50;;;;;;;;;;;;;;;;;;5067425;28;19932;-66
2021/06/02 15:45:17;;;;;;;;;;;;;;;;;;5064200;28;20280;-66
2021/06/02 15:47:43;;;;;;;;;;;;;;;;;;5067626;28;19994;-68
2021/06/02 15:50:10;;;;;;;;;;;;;;;;;;5064680;28;20411;-68
2021/06/02 15:52:36;;;;;;;;;;;;;;;;;;5065823;28;19940;-67
2021/06/02 15:55:03;;;;;;;;;;;;;;;;;;5064477;28;20003;-68
2021/06/02 15:57:30;;;;;;;;;;;;;;;;;;5066968;28;20397;-69
2021/06/02 15:59:56;;;;;;;;;;;;;;;;;;5063954;28;19929;-69
2021/06/02 16:02:23;;;;;;;;;;;;;;;;;;5065008;28;20265;-69
2021/06/02 16:04:49;;;;;;;;;;;;;;;;;;5068071;28;19933;-68
2021/06/02 16:07:16;;;;;;;;;;;;;;;;;;5067698;28;20357;-70
2021/06/02 16:09:42;;;;;;;;;;;;;;;;;;5067724;28;19924;-68
2021/06/02 16:12:09;;;;;;;;;;;;;;;;;;5065334;28;20028;-68
2021/06/02 16:14:37;;;;;;;;;;;;;;;;;;5065081;28;19931;-71
2021/06/02 16:17:03;;;;;;;;;;;;;;;;;;5066417;28;20341;-69
2021/06/02 16:19:30;;;;;;;;;;;;;;;;;;5066712;28;19924;-70
2021/06/02 16:21:56;;;;;;;;;;;;;;;;;;5068679;28;19967;-68
2021/06/02 16:24:23;;;;;;;;;;;;;;;;;;5065937;28;20001;-69
2021/06/02 16:26:49;;;;;;;;;;;;;;;;;;5065963;28;19933;-71
2021/06/02 16:29:16;;;;;;;;;;;;;;;;;;5064944;28;20365;-70
2021/06/02 16:31:42;;;;;;;;;;;;;;;;;;5068340;28;19924;-68
2021/06/02 16:34:09;;;;;;;;;;;;;;;;;;5066036;28;19924;-69
2021/06/02 16:36:35;;;;;;;;;;;;;;;;;;5065379;28;19928;-68
2021/06/02 16:39:02;;;;;;;;;;;;;;;;;;5066890;28;19929;-69
2021/06/02 16:41:28;;;;;;;;;;;;;;;;;;5065701;28;19928;-69
2021/06/02 16:43:57;;;;;;;;;;;;;;;;;;5065387;28;19932;-69
2021/06/02 16:46:23;;;;;;;;;;;;;;;;;;5065690;28;20392;-69